Sioux City, IA (51104)

12:02 AM CDT on April 19, 2015 (GMT -0500)
Northside Jones House | | Change Station
CLOSE
Current Station
Personal Weather Station
Location: Sioux City, IA
Elevation: 1253 ft
Nearby Weather Stations

Elev 1253 ft 42.55 °N, 96.41 °W | Updated 45 seconds ago

Mostly Cloudy
Mostly Cloudy
56.0 °F
Feels Like 56.0 °F
N
0.0
Wind Variable Wind from South
Gusts 0.0 mph

Today
High -- | Low -- °F
--% Chance of Precip.
Yesterday
High -- | Low -- °F
Precip. -- in
6:38 AM 8:11 PM
New Moon, 0% visible
Pressure 29.80 in
Visibility 7.0 miles
Clouds Overcast 7000 ft
Dew Point 38 °F
Humidity 51%
Rainfall -999.00 in
Snow Depth Not available.
UV 0 out of 12
Pollen 3.60 out of 12
Air Quality Not available.
Flu Activity Local Activity
METAR KSUX 190452Z 10004KT 7SM OVC070 13/11 A2980 RMK AO2 SLP089 T01280111

More Conditions Fewer Conditions

Pressure 29.80 in
Visibility 7.0 miles
Clouds Overcast 7000 ft
Dew Point 38 °F
Humidity 51%
Rainfall -999.00 in
Snow Depth Not available.
UV 0 out of 12
Pollen 3.60 out of 12
Air Quality Not available.
Flu Activity Local Activity
METAR KSUX 190452Z 10004KT 7SM OVC070 13/11 A2980 RMK AO2 SLP089 T01280111

More Conditions Fewer Conditions

10-Day Weather Forecast

Almanac

Astronomy

Apr. 19, 2015 Rise Set
Actual Time
Civil Twilight
Nautical Twilight
Astronomical Twilight
Moon
Length of Visible Light
Length of Day
Tomorrow will be .
, % of the Moon is Illuminated

Today's Extremes

State Highs State Lows

Community

WunderPhotos

Upload Photos

1,814,724 photos uploaded!

WunderBlogs® & News

Nearby

Air Quality

  Air Quality AQ Index Pollutant
Not available.

Snow Depth

Station Depth Elevation

Earthquake Activity

City Distance Mag. Time & Date
Minimum magnitude displayed is 2.5.

Coastal Water Temperatures

Place Temperature

Stations

Nearby Weather Stations

Station Location Temp. Windchill Dew Point Humidity Wind Precip. Elev Updated Type